createdAt,value
2022-12-03T00:02:12.183Z,15.44
2022-12-03T00:05:20.966Z,15.51
2022-12-03T00:08:30.097Z,15.42
2022-12-03T00:11:32.612Z,15.57
2022-12-03T00:14:48.026Z,15.47
2022-12-03T00:17:56.960Z,15.49
2022-12-03T00:21:05.951Z,15.46
2022-12-03T00:24:08.744Z,15.45
2022-12-03T00:27:18.048Z,15.40
2022-12-03T00:30:20.401Z,15.42
2022-12-03T00:33:30.072Z,15.45
2022-12-03T00:36:32.247Z,15.45
2022-12-03T00:39:41.152Z,15.36
2022-12-03T00:42:44.411Z,15.36
2022-12-03T00:45:53.000Z,15.30
2022-12-03T00:48:56.207Z,15.38
2022-12-03T00:52:05.037Z,15.32
2022-12-03T00:55:07.967Z,15.13
2022-12-03T00:58:17.119Z,15.22
2022-12-03T01:01:23.279Z,15.26
2022-12-03T01:04:32.181Z,15.32
2022-12-03T01:07:34.295Z,15.27
2022-12-03T01:10:43.084Z,15.22
2022-12-03T01:13:51.343Z,15.31
2022-12-03T01:16:55.040Z,15.23
2022-12-03T01:19:56.836Z,15.29
2022-12-03T01:23:06.027Z,15.16
2022-12-03T01:26:08.196Z,15.14
2022-12-03T01:29:17.997Z,15.02
2022-12-03T01:32:28.093Z,14.95
2022-12-03T01:35:30.304Z,15.13
2022-12-03T01:38:38.975Z,15.02
2022-12-03T01:41:44.382Z,14.74
2022-12-03T01:44:53.223Z,14.82
2022-12-03T01:47:55.397Z,14.68
2022-12-03T01:51:05.064Z,14.70
2022-12-03T01:54:17.355Z,14.60
2022-12-03T01:57:22.048Z,14.61
2022-12-03T02:00:36.013Z,14.64
2022-12-03T02:03:38.302Z,14.59
2022-12-03T02:06:47.031Z,14.50
2022-12-03T02:09:56.389Z,14.63
2022-12-03T02:13:10.375Z,14.90
2022-12-03T02:16:18.993Z,15.00
2022-12-03T02:19:44.863Z,14.82
2022-12-03T02:23:02.941Z,14.80
2022-12-03T02:26:06.332Z,14.95
2022-12-03T02:29:14.953Z,15.15
2022-12-03T02:32:24.043Z,15.27
2022-12-03T02:35:29.325Z,15.44
2022-12-03T02:38:42.046Z,15.56
2022-12-03T02:42:02.403Z,15.62
2022-12-03T02:45:13.938Z,15.58
2022-12-03T02:48:21.220Z,15.69
2022-12-03T02:51:30.007Z,15.87
2022-12-03T02:54:38.957Z,16.01
2022-12-03T02:57:51.085Z,16.05
2022-12-03T03:00:55.591Z,16.23
2022-12-03T03:04:07.086Z,16.41
2022-12-03T03:07:10.256Z,16.48
2022-12-03T03:10:22.086Z,16.62
2022-12-03T03:13:24.707Z,16.70
2022-12-03T03:16:35.180Z,16.85
2022-12-03T03:19:38.283Z,17.14
2022-12-03T03:22:48.986Z,17.55
2022-12-03T03:26:10.074Z,17.48
2022-12-03T03:29:18.940Z,17.65
2022-12-03T03:32:29.138Z,18.12
2022-12-03T03:35:32.281Z,18.59
2022-12-03T03:38:42.064Z,18.94
2022-12-03T03:41:45.350Z,19.07
2022-12-03T03:44:47.982Z,19.35
2022-12-03T03:47:51.426Z,20.42
2022-12-03T03:51:00.923Z,20.71
2022-12-03T03:54:05.394Z,20.98
2022-12-03T03:57:13.928Z,21.13
2022-12-03T04:00:22.945Z,21.38
2022-12-03T04:03:25.364Z,21.54
2022-12-03T04:06:35.984Z,21.64
2022-12-03T04:09:45.069Z,21.72
2022-12-03T04:12:56.440Z,21.80
2022-12-03T04:16:05.079Z,21.95
2022-12-03T04:19:07.228Z,22.31
2022-12-03T04:22:35.003Z,22.45
2022-12-03T04:25:55.442Z,21.88
2022-12-03T04:29:03.960Z,22.17
2022-12-03T04:32:25.381Z,22.36
2022-12-03T04:35:51.952Z,22.63
2022-12-03T04:39:00.910Z,22.42
2022-12-03T04:42:10.231Z,22.15
2022-12-03T04:45:19.064Z,22.28
2022-12-03T04:48:21.308Z,22.43
2022-12-03T04:51:31.016Z,22.06
2022-12-03T04:54:34.769Z,21.57
2022-12-03T04:57:44.990Z,22.09
2022-12-03T05:00:47.462Z,22.25
2022-12-03T05:03:55.907Z,22.24
2022-12-03T05:06:58.332Z,21.50
2022-12-03T05:10:08.080Z,21.31
2022-12-03T05:13:10.326Z,21.73
2022-12-03T05:16:20.069Z,21.82
2022-12-03T05:19:22.349Z,22.43
2022-12-03T05:22:32.109Z,22.00
2022-12-03T05:25:34.369Z,22.60
2022-12-03T05:28:43.904Z,22.55
2022-12-03T05:31:46.293Z,22.29
2022-12-03T05:34:55.274Z,22.83
2022-12-03T05:37:57.460Z,22.90
2022-12-03T05:41:05.884Z,23.90
2022-12-03T05:44:08.378Z,24.26
2022-12-03T05:47:17.011Z,23.88
2022-12-03T05:50:26.909Z,24.34
2022-12-03T05:53:49.007Z,24.78
2022-12-03T05:56:58.921Z,24.88
2022-12-03T06:00:08.097Z,24.56
2022-12-03T06:03:12.428Z,25.03
2022-12-03T06:06:21.050Z,24.49
2022-12-03T06:09:09.953Z,24.81
2022-12-03T06:12:01.985Z,25.01
2022-12-03T06:14:57.010Z,25.16
2022-12-03T06:17:45.907Z,25.19
2022-12-03T06:20:36.162Z,24.94
2022-12-03T06:23:24.996Z,25.27
2022-12-03T06:26:07.320Z,25.37
2022-12-03T06:28:56.921Z,24.10
2022-12-03T06:31:39.348Z,24.86
2022-12-03T06:34:28.016Z,24.29
2022-12-03T06:37:10.261Z,24.39
2022-12-03T06:39:59.010Z,25.07
2022-12-03T06:42:41.309Z,25.02
2022-12-03T06:45:29.971Z,25.50
2022-12-03T06:48:12.331Z,25.29
2022-12-03T06:51:00.945Z,24.87
2022-12-03T06:53:43.348Z,25.13
2022-12-03T06:56:36.754Z,25.43
2022-12-03T06:59:26.940Z,24.75
2022-12-03T07:02:17.119Z,25.37
2022-12-03T07:04:59.353Z,25.37
2022-12-03T07:07:48.168Z,25.42
2022-12-03T07:10:30.356Z,25.44
2022-12-03T07:13:19.053Z,24.60
2022-12-03T07:16:13.956Z,25.19
2022-12-03T07:19:03.969Z,25.41
2022-12-03T07:21:46.409Z,25.34
2022-12-03T07:24:34.964Z,25.18
2022-12-03T07:27:23.939Z,25.31
2022-12-03T07:30:14.973Z,25.49
2022-12-03T07:32:57.286Z,25.39
2022-12-03T07:35:46.034Z,25.28
2022-12-03T07:38:35.032Z,25.41
2022-12-03T07:41:24.263Z,25.25
2022-12-03T07:44:10.854Z,25.44
2022-12-03T07:47:03.225Z,25.47
2022-12-03T07:49:45.234Z,25.58
2022-12-03T07:52:34.077Z,25.04
2022-12-03T07:55:17.305Z,25.19
2022-12-03T07:58:06.005Z,25.34
2022-12-03T08:00:54.949Z,24.94
2022-12-03T08:03:44.071Z,25.37
2022-12-03T08:06:26.326Z,25.39
2022-12-03T08:09:16.400Z,25.36
2022-12-03T08:11:58.362Z,25.33
2022-12-03T08:14:47.869Z,25.27
2022-12-03T08:17:37.919Z,25.37
2022-12-03T08:20:22.820Z,25.42
2022-12-03T08:23:12.026Z,25.28
2022-12-03T08:25:54.672Z,25.35
2022-12-03T08:28:43.995Z,25.32
2022-12-03T08:31:32.881Z,25.42
2022-12-03T08:34:32.010Z,25.32
2022-12-03T08:37:21.006Z,25.45
2022-12-03T08:40:09.905Z,25.35
2022-12-03T08:42:58.881Z,25.46
2022-12-03T08:45:44.459Z,25.42
2022-12-03T08:48:44.008Z,25.34
2022-12-03T08:51:32.283Z,25.31
2022-12-03T08:54:28.002Z,25.56
2022-12-03T08:57:35.290Z,25.42
2022-12-03T09:00:30.965Z,25.39
2022-12-03T09:03:18.287Z,24.95
2022-12-03T09:06:07.045Z,25.26
2022-12-03T09:08:49.251Z,25.27
2022-12-03T09:11:38.039Z,25.19
2022-12-03T09:14:24.575Z,25.10
2022-12-03T09:17:13.061Z,25.12
2022-12-03T09:19:55.599Z,25.08
2022-12-03T09:22:44.961Z,24.90
2022-12-03T09:25:27.244Z,24.93
2022-12-03T09:28:16.966Z,24.92
2022-12-03T09:31:07.011Z,24.83
2022-12-03T09:34:01.962Z,24.81
2022-12-03T09:36:45.233Z,24.56
2022-12-03T09:39:33.880Z,24.83
2022-12-03T09:42:24.025Z,24.74
2022-12-03T09:45:06.258Z,24.69
2022-12-03T09:47:57.411Z,24.52
2022-12-03T09:50:39.429Z,24.36
2022-12-03T09:53:31.095Z,24.55
2022-12-03T09:56:13.239Z,24.58
2022-12-03T09:59:02.093Z,24.46
2022-12-03T10:01:44.448Z,24.28
2022-12-03T10:04:33.080Z,24.51
2022-12-03T10:07:41.038Z,24.32
2022-12-03T10:10:26.246Z,24.36
2022-12-03T10:13:36.910Z,24.24
2022-12-03T10:16:47.371Z,24.22
2022-12-03T10:19:50.974Z,24.16
2022-12-03T10:22:53.533Z,24.15
2022-12-03T10:26:11.891Z,24.08
2022-12-03T10:29:21.305Z,23.97
2022-12-03T10:32:29.883Z,23.97
2022-12-03T10:35:48.907Z,23.79
2022-12-03T10:38:51.354Z,23.76
2022-12-03T10:42:02.000Z,23.67
2022-12-03T10:45:27.945Z,23.51
2022-12-03T10:48:30.247Z,23.50
2022-12-03T10:51:39.005Z,23.40
2022-12-03T10:54:41.195Z,23.33
2022-12-03T10:58:01.869Z,23.30
2022-12-03T11:01:15.088Z,23.30
2022-12-03T11:04:27.969Z,23.22
2022-12-03T11:07:38.021Z,23.14
2022-12-03T11:10:40.131Z,23.02
2022-12-03T11:13:48.970Z,22.80
2022-12-03T11:17:06.974Z,22.75
2022-12-03T11:20:34.660Z,22.66
2022-12-03T11:23:26.024Z,22.45
2022-12-03T11:26:39.353Z,22.45
2022-12-03T11:29:31.039Z,22.49
2022-12-03T11:32:40.637Z,22.63
2022-12-03T11:35:52.895Z,22.45
2022-12-03T11:38:56.572Z,22.26
2022-12-03T11:41:49.962Z,22.16
2022-12-03T11:44:40.992Z,22.27
2022-12-03T11:47:25.475Z,22.01
2022-12-03T11:50:39.098Z,21.97
2022-12-03T11:53:41.887Z,21.83
2022-12-03T11:56:37.238Z,21.79
2022-12-03T11:59:23.954Z,21.65
2022-12-03T12:02:28.328Z,21.56
2022-12-03T12:05:30.856Z,21.48
2022-12-03T12:08:20.728Z,21.42
2022-12-03T12:11:09.924Z,21.31
2022-12-03T12:13:55.624Z,21.35
2022-12-03T12:17:00.875Z,21.38
2022-12-03T12:19:54.364Z,21.34
2022-12-03T12:22:38.399Z,21.08
2022-12-03T12:25:50.838Z,21.01
2022-12-03T12:28:42.855Z,20.80
2022-12-03T12:31:27.292Z,20.70
2022-12-03T12:34:16.953Z,20.76
2022-12-03T12:37:02.502Z,20.69
2022-12-03T12:39:51.088Z,20.61
2022-12-03T12:42:44.406Z,20.44
2022-12-03T12:45:29.960Z,20.34
2022-12-03T12:48:31.949Z,20.29
2022-12-03T12:51:25.221Z,20.23
2022-12-03T12:54:21.934Z,20.18
2022-12-03T12:57:10.933Z,20.09
2022-12-03T12:59:55.108Z,20.07
2022-12-03T13:03:00.935Z,19.97
2022-12-03T13:05:52.837Z,19.92
2022-12-03T13:08:53.862Z,19.84
2022-12-03T13:11:52.973Z,19.72
2022-12-03T13:14:41.215Z,19.67
2022-12-03T13:17:31.870Z,19.64
2022-12-03T13:20:32.939Z,19.57
2022-12-03T13:23:41.851Z,19.56
2022-12-03T13:26:54.006Z,19.54
2022-12-03T13:29:43.245Z,19.61
2022-12-03T13:32:29.945Z,19.65
2022-12-03T13:35:37.145Z,19.63
2022-12-03T13:38:24.858Z,19.58
2022-12-03T13:41:14.006Z,19.63
2022-12-03T13:43:56.270Z,19.43
2022-12-03T13:46:44.936Z,19.33
2022-12-03T13:49:30.222Z,19.32
2022-12-03T13:52:24.958Z,19.41
2022-12-03T13:55:11.283Z,19.30
2022-12-03T13:57:59.937Z,19.35
2022-12-03T14:00:42.250Z,19.19
2022-12-03T14:03:30.889Z,19.10
2022-12-03T14:06:20.355Z,19.10
2022-12-03T14:09:09.241Z,19.13
2022-12-03T14:12:09.841Z,19.26
2022-12-03T14:14:52.155Z,19.15
2022-12-03T14:17:46.004Z,19.15
2022-12-03T14:21:09.393Z,19.14
2022-12-03T14:23:50.992Z,18.92
2022-12-03T14:26:42.986Z,18.92
2022-12-03T14:29:37.857Z,18.83
2022-12-03T14:32:55.271Z,18.80
2022-12-03T14:35:39.942Z,18.69
2022-12-03T14:38:34.854Z,18.67
2022-12-03T14:41:42.845Z,18.62
2022-12-03T14:44:31.961Z,18.56
2022-12-03T14:47:23.927Z,18.50
2022-12-03T14:50:33.055Z,18.42
2022-12-03T14:53:44.237Z,18.38
2022-12-03T14:56:45.996Z,18.40
2022-12-03T14:59:28.295Z,18.26
2022-12-03T15:02:19.888Z,18.29
2022-12-03T15:05:02.412Z,18.20
2022-12-03T15:07:52.440Z,18.19
2022-12-03T15:10:34.288Z,18.14
2022-12-03T15:16:51.410Z,18.09
2022-12-03T15:19:33.889Z,18.00
2022-12-03T15:22:16.561Z,17.97
2022-12-03T15:25:06.029Z,17.87
2022-12-03T15:27:55.331Z,17.85
2022-12-03T15:30:39.032Z,17.87
2022-12-03T15:33:21.317Z,18.02
2022-12-03T15:36:21.011Z,18.03
2022-12-03T15:39:09.736Z,17.89
2022-12-03T15:41:59.365Z,17.84
2022-12-03T15:44:41.221Z,17.91
2022-12-03T15:47:29.963Z,17.91
2022-12-03T15:50:20.040Z,17.90
2022-12-03T15:53:03.989Z,17.78
2022-12-03T15:55:52.993Z,17.83
2022-12-03T15:58:36.780Z,17.91
2022-12-03T16:01:36.990Z,17.94
2022-12-03T16:04:26.844Z,17.94
2022-12-03T16:07:28.419Z,17.82
2022-12-03T16:10:18.523Z,17.76
2022-12-03T16:13:10.670Z,17.81
2022-12-03T16:16:19.294Z,17.79
2022-12-03T16:19:05.916Z,17.74
2022-12-03T16:21:55.030Z,17.80
2022-12-03T16:25:08.651Z,17.66
2022-12-03T16:28:37.825Z,17.67
2022-12-03T16:31:24.473Z,17.61
2022-12-03T16:34:22.497Z,17.58
2022-12-03T16:37:17.919Z,17.60
2022-12-03T16:40:10.913Z,17.47
2022-12-03T16:42:53.260Z,17.61
2022-12-03T16:45:53.004Z,17.47
2022-12-03T16:48:36.749Z,17.37
2022-12-03T16:51:29.488Z,17.43
2022-12-03T16:54:20.177Z,17.40
2022-12-03T16:57:21.623Z,17.48
2022-12-03T17:00:12.778Z,17.49
2022-12-03T17:02:56.339Z,17.48
2022-12-03T17:05:38.496Z,17.41
2022-12-03T17:08:27.971Z,17.42
2022-12-03T17:11:10.869Z,17.39
2022-12-03T17:14:01.271Z,17.44
2022-12-03T17:16:44.609Z,17.33
2022-12-03T17:19:33.977Z,17.33
2022-12-03T17:22:23.657Z,17.37
2022-12-03T17:25:07.351Z,17.36
2022-12-03T17:27:56.745Z,17.27
2022-12-03T17:30:40.293Z,17.24
2022-12-03T17:33:28.679Z,17.29
2022-12-03T17:36:12.104Z,17.18
2022-12-03T17:39:01.352Z,17.27
2022-12-03T17:41:43.956Z,17.21
2022-12-03T17:44:32.266Z,17.13
2022-12-03T17:47:14.997Z,17.03
2022-12-03T17:50:04.302Z,17.02
2022-12-03T17:52:45.847Z,16.98
2022-12-03T17:55:41.096Z,17.12
2022-12-03T17:58:34.038Z,17.07
2022-12-03T18:01:23.747Z,17.05
2022-12-03T18:04:25.366Z,17.05
2022-12-03T18:07:33.921Z,16.99
2022-12-03T18:10:17.191Z,16.93
2022-12-03T18:13:05.923Z,16.91
2022-12-03T18:16:00.799Z,16.85
2022-12-03T18:18:55.041Z,16.86
2022-12-03T18:21:39.357Z,16.89
2022-12-03T18:24:29.966Z,16.80
2022-12-03T18:27:12.363Z,16.72
2022-12-03T18:30:03.975Z,16.78
2022-12-03T18:32:47.025Z,16.81
2022-12-03T18:35:36.661Z,16.83
2022-12-03T18:38:30.947Z,16.75
2022-12-03T18:41:13.346Z,16.79
2022-12-03T18:44:01.913Z,16.76
2022-12-03T18:46:53.926Z,16.81
2022-12-03T18:49:36.432Z,16.74
2022-12-03T18:52:27.831Z,16.62
2022-12-03T18:55:10.669Z,16.67
2022-12-03T18:57:59.941Z,16.67
2022-12-03T19:00:51.282Z,16.74
2022-12-03T19:03:40.969Z,16.68
2022-12-03T19:06:30.108Z,16.54
2022-12-03T19:09:18.961Z,16.63
2022-12-03T19:12:14.433Z,16.48
2022-12-03T19:15:03.942Z,16.59
2022-12-03T19:17:59.311Z,16.57
2022-12-03T19:20:42.910Z,16.55
2022-12-03T19:23:25.239Z,16.53
2022-12-03T19:26:15.941Z,16.33
2022-12-03T19:28:58.343Z,16.29
2022-12-03T19:31:47.007Z,16.29
2022-12-03T19:34:29.291Z,16.39
2022-12-03T19:37:17.959Z,16.29
2022-12-03T19:40:00.332Z,16.25
2022-12-03T19:42:48.927Z,16.22
2022-12-03T19:45:31.157Z,16.29
2022-12-03T19:48:19.940Z,16.19
2022-12-03T19:51:26.511Z,16.11
2022-12-03T19:54:11.908Z,16.09
2022-12-03T19:57:00.932Z,15.95
2022-12-03T19:59:50.944Z,16.12
2022-12-03T20:02:33.286Z,16.07
2022-12-03T20:05:21.930Z,15.98
2022-12-03T20:08:04.820Z,16.04
2022-12-03T20:10:53.935Z,16.11
2022-12-03T20:13:36.642Z,16.05
2022-12-03T20:16:29.050Z,16.07
2022-12-03T20:19:20.873Z,16.10
2022-12-03T20:22:09.892Z,16.05
2022-12-03T20:24:58.866Z,16.14
2022-12-03T20:27:41.410Z,16.19
2022-12-03T20:30:29.912Z,16.11
2022-12-03T20:33:12.554Z,16.14
2022-12-03T20:36:04.877Z,16.16
2022-12-03T20:38:47.172Z,16.13
2022-12-03T20:41:35.949Z,16.11
2022-12-03T20:44:18.285Z,16.05
2022-12-03T20:47:06.937Z,16.00
2022-12-03T20:49:49.363Z,15.95
2022-12-03T20:52:37.937Z,15.95
2022-12-03T20:55:20.344Z,15.82
2022-12-03T20:58:08.907Z,15.96
2022-12-03T21:00:51.346Z,15.97
2022-12-03T21:03:39.852Z,15.93
2022-12-03T21:06:23.197Z,15.95
2022-12-03T21:09:14.929Z,15.95
2022-12-03T21:12:03.903Z,15.95
2022-12-03T21:14:46.262Z,15.98
2022-12-03T21:17:34.950Z,16.01
2022-12-03T21:20:21.025Z,16.03
2022-12-03T21:23:09.913Z,15.97
2022-12-03T21:25:52.090Z,15.96
2022-12-03T21:28:40.897Z,16.02
2022-12-03T21:31:26.807Z,16.08
2022-12-03T21:34:15.910Z,16.02
2022-12-03T21:37:04.880Z,15.96
2022-12-03T21:39:47.148Z,16.03
2022-12-03T21:42:37.185Z,16.01
2022-12-03T21:45:19.191Z,15.94
2022-12-03T21:48:07.914Z,15.87
2022-12-03T21:50:50.140Z,15.91
2022-12-03T21:53:43.613Z,15.97
2022-12-03T21:56:27.383Z,15.89
2022-12-03T21:59:15.918Z,15.75
2022-12-03T22:01:58.401Z,15.77
2022-12-03T22:04:47.901Z,15.74
2022-12-03T22:07:30.431Z,15.69
2022-12-03T22:10:19.878Z,15.77
2022-12-03T22:13:02.208Z,15.76
2022-12-03T22:15:50.890Z,15.72
2022-12-03T22:18:46.922Z,15.75
2022-12-03T22:21:29.179Z,15.69
2022-12-03T22:24:17.838Z,15.65
2022-12-03T22:27:00.104Z,15.70
2022-12-03T22:29:48.888Z,15.74
2022-12-03T22:32:37.204Z,15.83
2022-12-03T22:35:18.896Z,15.71
2022-12-03T22:38:07.935Z,15.72
2022-12-03T22:40:56.886Z,15.76
2022-12-03T22:43:39.295Z,15.70
2022-12-03T22:46:27.919Z,15.67
2022-12-03T22:49:16.889Z,15.54
2022-12-03T22:51:59.195Z,15.33
2022-12-03T22:54:47.897Z,15.26
2022-12-03T22:57:36.901Z,15.26
2022-12-03T23:00:33.363Z,15.05
2022-12-03T23:03:22.846Z,14.97
2022-12-03T23:06:11.933Z,15.04
2022-12-03T23:09:00.887Z,15.01
2022-12-03T23:11:52.169Z,14.92
2022-12-03T23:14:33.879Z,14.95
2022-12-03T23:17:28.859Z,15.03
2022-12-03T23:20:17.838Z,15.03
2022-12-03T23:23:01.172Z,15.13
2022-12-03T23:25:49.883Z,15.01
2022-12-03T23:28:33.092Z,15.05
2022-12-03T23:31:33.955Z,15.20
2022-12-03T23:34:16.138Z,15.11
2022-12-03T23:37:04.906Z,15.07
2022-12-03T23:39:47.158Z,14.99
2022-12-03T23:42:35.872Z,15.03
2022-12-03T23:45:18.153Z,15.02
2022-12-03T23:48:06.842Z,15.15
2022-12-03T23:50:49.143Z,14.95
2022-12-03T23:53:37.838Z,14.78
2022-12-03T23:56:33.895Z,14.87
2022-12-03T23:59:22.880Z,14.95
